Time;durP1;ratioP1;P1;durP2;ratioP2;P2;SDS_P1;SDS_P2;PMS_P1;PMS_P2;Temp;Humidity;BMP_temperature;BMP_pressure;BME280_temperature;BME280_humidity;BME280_pressure;Samples;Min_cycle;Max_cycle;Signal;HPM_P1;HPM_P2
2022/12/27 00:01:53;;;;;;;1.50;1.40;;;;;;;;;;5038277;28;20245;-80
2022/12/27 00:04:18;;;;;;;1.50;1.40;;;;;;;;;;5047245;28;20185;-80
2022/12/27 00:06:43;;;;;;;4.27;1.90;;;;;;;;;;5045574;28;20245;-80
2022/12/27 00:09:09;;;;;;;2.83;1.60;;;;;;;;;;5043792;28;20325;-80
2022/12/27 00:11:34;;;;;;;1.50;1.40;;;;;;;;;;5042841;28;20297;-80
2022/12/27 00:14:04;;;;;;;1.40;1.30;;;;;;;;;;5047335;28;20177;-80
2022/12/27 00:16:29;;;;;;;1.80;1.40;;;;;;;;;;5051435;28;20173;-80
2022/12/27 00:18:54;;;;;;;2.43;1.50;;;;;;;;;;5044818;28;21433;-80
2022/12/27 00:21:20;;;;;;;2.83;1.40;;;;;;;;;;5065646;28;20189;-80
2022/12/27 00:23:47;;;;;;;2.73;1.60;;;;;;;;;;5044901;28;20209;-79
2022/12/27 00:26:22;;;;;;;2.00;1.07;;;;;;;;;;5043340;28;20178;-80
2022/12/27 00:28:47;;;;;;;2.23;1.20;;;;;;;;;;5047353;28;20182;-80
2022/12/27 00:31:13;;;;;;;1.50;1.30;;;;;;;;;;5047248;28;20199;-79
2022/12/27 00:33:39;;;;;;;3.73;1.50;;;;;;;;;;5046612;28;20177;-80
2022/12/27 00:36:06;;;;;;;1.53;1.30;;;;;;;;;;5065882;28;20179;-80
2022/12/27 00:38:31;;;;;;;3.30;1.50;;;;;;;;;;5011234;28;20203;-80
2022/12/27 00:40:57;;;;;;;1.70;1.60;;;;;;;;;;5011433;28;20236;-79
2022/12/27 00:43:22;;;;;;;1.90;1.60;;;;;;;;;;5007646;28;20210;-80
2022/12/27 00:45:48;;;;;;;3.33;1.60;;;;;;;;;;5012500;28;20265;-79
2022/12/27 00:48:13;;;;;;;4.33;2.10;;;;;;;;;;5007082;28;20193;-80
2022/12/27 00:50:39;;;;;;;1.97;1.53;;;;;;;;;;5010837;28;20211;-79
2022/12/27 00:53:04;;;;;;;2.97;1.93;;;;;;;;;;5015924;28;20167;-79
2022/12/27 00:55:29;;;;;;;3.20;2.20;;;;;;;;;;5005201;28;20175;-80
2022/12/27 00:57:55;;;;;;;1.87;1.50;;;;;;;;;;5005462;28;20301;-80
2022/12/27 01:00:20;;;;;;;2.03;1.50;;;;;;;;;;5011674;28;20179;-80
2022/12/27 01:02:45;;;;;;;5.43;1.43;;;;;;;;;;5006857;28;20183;-80
2022/12/27 01:05:11;;;;;;;4.40;1.50;;;;;;;;;;5012191;28;20190;-80
2022/12/27 01:07:36;;;;;;;4.40;1.50;;;;;;;;;;5015849;28;20176;-79
2022/12/27 01:10:02;;;;;;;1.17;1.07;;;;;;;;;;5013292;28;20221;-80
2022/12/27 01:12:27;;;;;;;2.77;1.37;;;;;;;;;;5007821;28;20261;-80
2022/12/27 01:14:52;;;;;;;3.90;1.40;;;;;;;;;;5010715;28;20175;-80
2022/12/27 01:17:17;;;;;;;2.50;1.40;;;;;;;;;;5028693;28;20195;-80
2022/12/27 01:19:43;;;;;;;2.47;1.33;;;;;;;;;;5013864;28;20181;-80
2022/12/27 01:22:08;;;;;;;2.60;1.20;;;;;;;;;;5008093;28;20190;-79
2022/12/27 01:24:33;;;;;;;2.60;1.70;;;;;;;;;;5006575;28;20205;-80
2022/12/27 01:26:58;;;;;;;1.67;1.27;;;;;;;;;;5012761;28;20189;-80
2022/12/27 01:29:24;;;;;;;3.60;1.30;;;;;;;;;;5004362;28;20234;-80
2022/12/27 01:31:49;;;;;;;1.70;1.43;;;;;;;;;;5010751;28;20285;-80
2022/12/27 01:34:15;;;;;;;1.80;1.40;;;;;;;;;;5013488;28;20307;-79
2022/12/27 01:36:40;;;;;;;2.83;1.60;;;;;;;;;;5017699;28;20271;-80
2022/12/27 01:39:07;;;;;;;1.73;1.40;;;;;;;;;;5046282;28;20174;-80
2022/12/27 01:44:57;;;;;;;3.83;1.97;;;;;;;;;;5051206;28;20196;-79
2022/12/27 01:47:40;;;;;;;2.67;1.70;;;;;;;;;;5044773;28;20186;-79
2022/12/27 01:50:16;;;;;;;4.80;1.90;;;;;;;;;;5050641;28;20654;-80
2022/12/27 01:52:58;;;;;;;1.80;1.50;;;;;;;;;;5044380;28;20182;-80
2022/12/27 01:55:27;;;;;;;3.60;2.07;;;;;;;;;;5040159;28;20193;-79
2022/12/27 01:57:54;;;;;;;2.63;1.60;;;;;;;;;;5042893;28;20208;-79
2022/12/27 02:00:19;;;;;;;4.37;2.07;;;;;;;;;;5049910;28;20181;-80
2022/12/27 02:02:44;;;;;;;3.20;1.70;;;;;;;;;;5041316;28;20183;-80
2022/12/27 02:05:12;;;;;;;3.90;1.90;;;;;;;;;;5045348;28;20174;-79
2022/12/27 02:07:44;;;;;;;2.33;1.80;;;;;;;;;;5050977;28;20182;-80
2022/12/27 02:10:10;;;;;;;2.07;1.50;;;;;;;;;;5054081;28;20224;-79
2022/12/27 02:12:36;;;;;;;3.47;2.10;;;;;;;;;;5052734;28;20209;-80
2022/12/27 02:15:03;;;;;;;2.83;2.00;;;;;;;;;;5066673;28;20244;-79
2022/12/27 02:17:29;;;;;;;2.73;1.80;;;;;;;;;;5051399;28;20202;-79
2022/12/27 02:20:13;;;;;;;2.20;2.00;;;;;;;;;;5045231;28;20193;-80
2022/12/27 02:25:50;;;;;;;2.50;1.70;;;;;;;;;;5050245;28;20180;-80
2022/12/27 02:28:21;;;;;;;2.43;2.23;;;;;;;;;;5049227;28;20231;-80
2022/12/27 02:30:48;;;;;;;3.10;1.90;;;;;;;;;;5050329;28;20269;-79
2022/12/27 02:33:18;;;;;;;3.47;2.47;;;;;;;;;;5049423;28;20267;-80
2022/12/27 02:35:47;;;;;;;2.33;2.13;;;;;;;;;;5046956;28;20183;-79
2022/12/27 02:38:20;;;;;;;3.87;2.43;;;;;;;;;;5049371;28;20234;-80
2022/12/27 02:54:33;;;;;;;2.87;1.50;;;;;;;;;;5056547;28;20243;-79
2022/12/27 02:57:17;;;;;;;2.30;1.87;;;;;;;;;;5050526;28;20181;-79
2022/12/27 03:08:53;;;;;;;2.47;1.60;;;;;;;;;;5052055;28;20243;-79
2022/12/27 03:16:59;;;;;;;4.37;1.53;;;;;;;;;;5041513;28;20240;-79
2022/12/27 03:25:27;;;;;;;3.70;1.60;;;;;;;;;;5049265;28;20226;-79
2022/12/27 03:33:25;;;;;;;2.83;1.60;;;;;;;;;;5041762;28;20232;-79
2022/12/27 03:38:49;;;;;;;2.13;1.73;;;;;;;;;;5024519;28;20264;-79
2022/12/27 03:44:22;;;;;;;2.33;1.70;;;;;;;;;;5022418;28;20197;-79
2022/12/27 03:46:49;;;;;;;2.30;1.57;;;;;;;;;;5018187;28;20462;-79
2022/12/27 03:49:17;;;;;;;1.97;1.77;;;;;;;;;;5020068;28;20237;-79
2022/12/27 03:51:48;;;;;;;5.73;1.77;;;;;;;;;;5012180;28;20309;-80
2022/12/27 03:54:36;;;;;;;1.67;1.30;;;;;;;;;;5021351;28;20240;-79
2022/12/27 03:57:04;;;;;;;2.80;1.90;;;;;;;;;;4997610;28;20226;-79
2022/12/27 03:59:29;;;;;;;1.43;1.33;;;;;;;;;;5034874;28;20183;-80
2022/12/27 04:01:55;;;;;;;2.90;2.07;;;;;;;;;;5014096;28;20192;-79
2022/12/27 04:04:20;;;;;;;4.63;2.13;;;;;;;;;;5005484;28;20191;-79
2022/12/27 04:06:45;;;;;;;3.33;2.00;;;;;;;;;;5017936;28;20228;-80
2022/12/27 04:36:30;;;;;;;3.80;2.13;;;;;;;;;;5027503;28;20293;-80
2022/12/27 04:38:55;;;;;;;2.47;2.10;;;;;;;;;;5047895;28;20201;-80
2022/12/27 04:55:08;;;;;;;3.43;1.33;;;;;;;;;;5047000;28;20193;-80
2022/12/27 04:57:33;;;;;;;3.50;1.50;;;;;;;;;;5038618;28;20178;-81
2022/12/27 05:02:43;;;;;;;3.73;1.77;;;;;;;;;;5045600;28;20177;-81
2022/12/27 05:05:09;;;;;;;3.67;1.50;;;;;;;;;;5045861;28;20174;-81
2022/12/27 05:15:47;;;;;;;1.50;1.40;;;;;;;;;;5055746;28;20205;-81
2022/12/27 05:18:14;;;;;;;1.77;1.23;;;;;;;;;;5048439;28;20205;-81
2022/12/27 05:20:39;;;;;;;3.70;1.27;;;;;;;;;;5046716;28;20182;-80
2022/12/27 05:25:48;;;;;;;1.67;1.17;;;;;;;;;;5043992;28;20245;-81
2022/12/27 05:28:13;;;;;;;2.47;1.10;;;;;;;;;;5049614;28;20186;-80
2022/12/27 05:30:39;;;;;;;2.47;1.50;;;;;;;;;;5047935;28;20175;-81
2022/12/27 05:33:05;;;;;;;3.57;1.50;;;;;;;;;;5048321;28;20180;-81
2022/12/27 05:35:30;;;;;;;2.53;1.57;;;;;;;;;;5044149;28;20174;-81
2022/12/27 05:37:56;;;;;;;2.50;1.47;;;;;;;;;;5040599;28;20674;-81
2022/12/27 05:40:21;;;;;;;1.50;1.40;;;;;;;;;;5043023;28;20182;-82
2022/12/27 05:42:46;;;;;;;3.17;1.47;;;;;;;;;;5046540;28;20335;-81
2022/12/27 05:45:13;;;;;;;2.07;1.43;;;;;;;;;;5045053;28;20182;-81
2022/12/27 05:47:38;;;;;;;2.23;1.30;;;;;;;;;;5044766;28;20185;-81
2022/12/27 05:50:03;;;;;;;3.10;2.80;;;;;;;;;;5051298;28;20174;-82
2022/12/27 05:52:29;;;;;;;3.40;1.80;;;;;;;;;;5047086;28;20288;-82
2022/12/27 05:54:54;;;;;;;2.50;2.30;;;;;;;;;;5050400;28;20182;-82
2022/12/27 05:57:19;;;;;;;1.93;1.40;;;;;;;;;;5048055;28;20190;-82
2022/12/27 05:59:45;;;;;;;5.37;2.70;;;;;;;;;;5051077;28;20181;-82
2022/12/27 06:02:10;;;;;;;2.00;1.80;;;;;;;;;;5041124;28;20183;-82
2022/12/27 06:04:35;;;;;;;3.20;2.77;;;;;;;;;;5048097;28;20181;-82
2022/12/27 06:07:00;;;;;;;4.93;2.67;;;;;;;;;;5049306;28;20186;-82
2022/12/27 06:09:25;;;;;;;2.53;2.07;;;;;;;;;;5053787;28;20194;-82
2022/12/27 06:11:51;;;;;;;3.30;1.77;;;;;;;;;;5046325;28;20203;-82
2022/12/27 06:14:16;;;;;;;8.60;5.07;;;;;;;;;;5050236;28;20177;-82
2022/12/27 06:16:41;;;;;;;4.63;2.60;;;;;;;;;;5051483;28;20574;-82
2022/12/27 06:19:06;;;;;;;6.47;2.37;;;;;;;;;;5068943;28;20206;-82
2022/12/27 06:21:32;;;;;;;3.13;2.70;;;;;;;;;;5041691;28;20254;-83
2022/12/27 06:23:57;;;;;;;3.47;2.77;;;;;;;;;;5048080;28;20277;-82
2022/12/27 06:26:23;;;;;;;2.40;1.40;;;;;;;;;;5068816;28;20185;-82
2022/12/27 06:28:49;;;;;;;3.20;1.57;;;;;;;;;;5043364;28;20186;-82
2022/12/27 06:31:15;;;;;;;2.10;1.57;;;;;;;;;;5046553;28;20536;-82
2022/12/27 06:33:40;;;;;;;2.40;1.87;;;;;;;;;;5045293;28;20190;-82
2022/12/27 06:36:07;;;;;;;3.20;1.70;;;;;;;;;;5043186;28;20182;-82
2022/12/27 06:38:32;;;;;;;2.97;2.30;;;;;;;;;;5046092;28;20222;-82
2022/12/27 06:41:01;;;;;;;2.33;1.37;;;;;;;;;;5071199;28;20181;-82
2022/12/27 06:43:26;;;;;;;3.13;1.90;;;;;;;;;;5053452;28;20343;-82
2022/12/27 06:45:59;;;;;;;2.83;2.00;;;;;;;;;;5049939;28;20276;-82
2022/12/27 06:48:24;;;;;;;4.30;2.07;;;;;;;;;;5047512;28;20212;-82
2022/12/27 06:50:49;;;;;;;2.07;1.87;;;;;;;;;;5056054;28;20286;-82
2022/12/27 06:53:14;;;;;;;3.50;2.43;;;;;;;;;;5047557;28;20594;-82
2022/12/27 06:55:39;;;;;;;2.50;2.30;;;;;;;;;;5049705;28;20178;-82
2022/12/27 06:58:05;;;;;;;2.87;2.10;;;;;;;;;;5045527;28;20174;-82
2022/12/27 07:00:30;;;;;;;4.80;1.73;;;;;;;;;;5045405;28;20175;-82
2022/12/27 07:02:55;;;;;;;2.63;1.40;;;;;;;;;;5050285;28;20181;-82
2022/12/27 07:05:20;;;;;;;3.43;1.40;;;;;;;;;;5056211;28;20190;-82
2022/12/27 07:07:45;;;;;;;4.60;1.93;;;;;;;;;;5051596;28;20189;-82
2022/12/27 07:10:11;;;;;;;1.83;1.50;;;;;;;;;;5048427;28;20184;-82
2022/12/27 07:12:36;;;;;;;3.10;1.40;;;;;;;;;;5047372;28;20300;-82
2022/12/27 07:15:02;;;;;;;3.23;1.70;;;;;;;;;;5048004;28;20252;-82
2022/12/27 07:17:27;;;;;;;3.00;1.33;;;;;;;;;;5044506;28;20276;-82
2022/12/27 07:19:52;;;;;;;2.00;1.57;;;;;;;;;;5040512;28;20182;-82
2022/12/27 07:22:18;;;;;;;2.50;1.90;;;;;;;;;;5052638;28;20196;-82
2022/12/27 07:24:43;;;;;;;4.17;1.97;;;;;;;;;;5044574;28;20209;-82
2022/12/27 07:27:08;;;;;;;2.10;1.90;;;;;;;;;;5051438;28;20178;-82
2022/12/27 07:29:33;;;;;;;2.60;1.47;;;;;;;;;;5045475;28;20279;-82
2022/12/27 07:31:58;;;;;;;3.20;1.57;;;;;;;;;;5049779;28;20234;-82
2022/12/27 07:34:24;;;;;;;3.83;1.93;;;;;;;;;;5048715;28;20212;-81
2022/12/27 07:36:50;;;;;;;2.23;1.80;;;;;;;;;;5042131;28;20229;-82
2022/12/27 07:39:16;;;;;;;3.23;1.90;;;;;;;;;;5047021;28;20181;-82
2022/12/27 07:41:41;;;;;;;3.83;2.03;;;;;;;;;;5047090;28;20276;-82
2022/12/27 07:44:07;;;;;;;3.70;2.13;;;;;;;;;;5038206;28;20546;-82
2022/12/27 07:46:32;;;;;;;3.07;1.40;;;;;;;;;;5046093;28;20198;-82
2022/12/27 07:48:58;;;;;;;3.83;2.50;;;;;;;;;;5039573;28;20178;-81
2022/12/27 07:51:24;;;;;;;6.53;5.10;;;;;;;;;;5046498;28;20205;-82
2022/12/27 07:53:49;;;;;;;3.50;2.47;;;;;;;;;;5041258;28;20529;-82
2022/12/27 07:56:19;;;;;;;6.90;5.73;;;;;;;;;;5047416;28;20182;-82
2022/12/27 07:58:45;;;;;;;9.30;8.37;;;;;;;;;;5048074;28;20178;-82
2022/12/27 08:01:11;;;;;;;2.97;1.80;;;;;;;;;;5064771;28;20174;-82
2022/12/27 08:03:37;;;;;;;7.33;2.13;;;;;;;;;;5048661;28;20189;-82
2022/12/27 08:06:02;;;;;;;4.97;1.87;;;;;;;;;;5044606;28;20179;-82
2022/12/27 08:08:34;;;;;;;2.13;1.43;;;;;;;;;;5047557;28;20392;-82
2022/12/27 08:10:59;;;;;;;3.03;1.30;;;;;;;;;;5039946;28;20198;-82
2022/12/27 08:13:25;;;;;;;1.50;1.10;;;;;;;;;;5050470;28;20178;-82
2022/12/27 08:15:51;;;;;;;2.47;1.70;;;;;;;;;;5050342;28;20285;-82
2022/12/27 08:18:16;;;;;;;1.10;1.00;;;;;;;;;;5051556;28;20193;-82
2022/12/27 08:20:41;;;;;;;5.30;1.30;;;;;;;;;;5048127;28;20182;-82
2022/12/27 08:23:06;;;;;;;1.13;1.00;;;;;;;;;;5044141;28;20178;-82
2022/12/27 08:25:32;;;;;;;4.93;1.53;;;;;;;;;;5038132;28;20178;-82
2022/12/27 08:28:08;;;;;;;1.70;1.40;;;;;;;;;;5041695;28;20179;-82
2022/12/27 08:30:34;;;;;;;4.20;1.87;;;;;;;;;;5047171;28;20174;-82
2022/12/27 08:32:59;;;;;;;5.03;1.83;;;;;;;;;;5041549;28;20190;-81
2022/12/27 08:35:24;;;;;;;1.70;1.40;;;;;;;;;;5046012;28;20201;-82
2022/12/27 08:37:50;;;;;;;3.07;1.40;;;;;;;;;;5063284;28;20241;-82
2022/12/27 08:40:15;;;;;;;2.17;1.50;;;;;;;;;;5042710;28;20181;-82
2022/12/27 08:42:40;;;;;;;2.63;1.63;;;;;;;;;;5042664;28;20185;-82
2022/12/27 08:45:06;;;;;;;2.63;1.60;;;;;;;;;;5048834;28;20216;-82
2022/12/27 08:47:31;;;;;;;2.70;1.40;;;;;;;;;;5044427;28;20178;-82
2022/12/27 08:49:56;;;;;;;2.07;1.40;;;;;;;;;;5047074;28;20182;-81
2022/12/27 08:52:21;;;;;;;3.83;1.80;;;;;;;;;;5050059;28;20205;-82
2022/12/27 08:54:47;;;;;;;3.40;1.40;;;;;;;;;;5046229;28;20236;-81
2022/12/27 08:57:12;;;;;;;2.13;1.50;;;;;;;;;;5045750;28;20174;-81
2022/12/27 08:59:37;;;;;;;2.30;1.57;;;;;;;;;;5061688;28;20251;-81
2022/12/27 09:02:02;;;;;;;1.67;1.20;;;;;;;;;;5045622;28;20474;-82
2022/12/27 09:04:27;;;;;;;5.00;1.70;;;;;;;;;;5048738;28;20178;-82
2022/12/27 09:06:52;;;;;;;2.17;1.33;;;;;;;;;;5044022;28;20174;-82
2022/12/27 09:09:18;;;;;;;2.57;1.57;;;;;;;;;;5051903;28;20208;-82
2022/12/27 09:11:43;;;;;;;2.03;1.40;;;;;;;;;;5049842;28;20308;-82
2022/12/27 09:14:09;;;;;;;2.87;1.97;;;;;;;;;;5050091;28;20170;-82
2022/12/27 09:16:34;;;;;;;1.63;1.20;;;;;;;;;;5042694;28;20206;-82
2022/12/27 09:19:00;;;;;;;2.87;1.47;;;;;;;;;;5040097;28;20198;-82
2022/12/27 09:21:27;;;;;;;5.43;2.50;;;;;;;;;;5039461;28;20206;-82
2022/12/27 09:23:53;;;;;;;5.40;1.90;;;;;;;;;;5042836;28;20189;-82
2022/12/27 09:26:22;;;;;;;3.53;1.30;;;;;;;;;;5043122;28;20174;-82
2022/12/27 09:28:48;;;;;;;2.27;1.47;;;;;;;;;;5041876;28;20202;-82
2022/12/27 09:31:14;;;;;;;2.47;1.10;;;;;;;;;;5047676;28;20291;-83
2022/12/27 09:33:39;;;;;;;3.00;1.33;;;;;;;;;;5046478;28;20309;-82
2022/12/27 09:36:21;;;;;;;4.33;1.70;;;;;;;;;;5041841;28;20167;-82
2022/12/27 09:38:47;;;;;;;2.50;1.10;;;;;;;;;;5041736;28;20193;-83
2022/12/27 09:41:12;;;;;;;3.87;1.60;;;;;;;;;;5050933;28;20185;-83
2022/12/27 09:43:40;;;;;;;2.87;1.40;;;;;;;;;;5043547;28;20186;-82
2022/12/27 09:46:11;;;;;;;3.20;1.40;;;;;;;;;;5046603;28;20189;-83
2022/12/27 09:48:37;;;;;;;2.77;1.40;;;;;;;;;;5046042;28;20217;-82
2022/12/27 09:51:05;;;;;;;3.27;1.33;;;;;;;;;;5034433;28;20206;-82
2022/12/27 09:53:44;;;;;;;4.53;1.93;;;;;;;;;;5040977;28;20178;-83
2022/12/27 09:56:15;;;;;;;3.23;1.37;;;;;;;;;;5047572;28;20185;-82
2022/12/27 09:58:40;;;;;;;3.93;1.40;;;;;;;;;;5047613;28;20174;-82
2022/12/27 10:01:20;;;;;;;4.27;1.53;;;;;;;;;;5046042;28;20173;-82
2022/12/27 10:03:45;;;;;;;3.47;1.60;;;;;;;;;;5033609;28;20264;-82
2022/12/27 10:06:14;;;;;;;3.73;1.60;;;;;;;;;;5048002;28;20237;-82
2022/12/27 10:08:46;;;;;;;2.77;1.70;;;;;;;;;;5039840;28;20178;-82
2022/12/27 10:11:37;;;;;;;3.63;1.40;;;;;;;;;;5045889;28;20279;-82
2022/12/27 10:14:12;;;;;;;4.43;2.17;;;;;;;;;;5045766;28;20185;-82
2022/12/27 10:16:41;;;;;;;3.97;1.63;;;;;;;;;;5045566;28;20213;-82
2022/12/27 10:19:09;;;;;;;3.60;1.60;;;;;;;;;;5045424;28;20217;-82
2022/12/27 10:21:38;;;;;;;3.47;1.60;;;;;;;;;;5047072;28;20175;-83
2022/12/27 10:24:24;;;;;;;5.20;1.47;;;;;;;;;;5044100;28;20213;-82
2022/12/27 10:26:52;;;;;;;5.83;1.30;;;;;;;;;;5046500;28;20178;-82
2022/12/27 10:29:24;;;;;;;2.77;1.17;;;;;;;;;;5051152;28;20194;-82
2022/12/27 10:31:50;;;;;;;2.83;1.63;;;;;;;;;;5052726;28;20202;-82
2022/12/27 10:34:16;;;;;;;1.67;1.20;;;;;;;;;;5050895;28;20269;-82
2022/12/27 10:36:42;;;;;;;3.00;1.30;;;;;;;;;;5051596;28;20221;-82
2022/12/27 10:39:15;;;;;;;1.33;1.07;;;;;;;;;;5046170;28;20193;-82
2022/12/27 10:41:59;;;;;;;1.87;1.20;;;;;;;;;;5047335;28;20177;-81
2022/12/27 10:44:25;;;;;;;4.83;2.17;;;;;;;;;;5050691;28;20209;-81
2022/12/27 10:46:54;;;;;;;3.33;1.47;;;;;;;;;;5047366;28;20221;-81
2022/12/27 10:49:22;;;;;;;2.13;1.80;;;;;;;;;;5048974;28;20236;-81
2022/12/27 10:51:48;;;;;;;2.17;1.10;;;;;;;;;;5048275;28;20296;-81
2022/12/27 10:54:24;;;;;;;1.47;0.80;;;;;;;;;;5047371;28;20175;-81
2022/12/27 10:56:50;;;;;;;6.27;2.13;;;;;;;;;;5055021;28;20184;-81
2022/12/27 10:59:19;;;;;;;8.00;1.93;;;;;;;;;;5049747;28;20178;-81
2022/12/27 11:01:46;;;;;;;2.07;1.10;;;;;;;;;;5050474;28;20285;-81
2022/12/27 11:04:13;;;;;;;2.57;1.37;;;;;;;;;;5046586;28;20250;-81
2022/12/27 11:06:39;;;;;;;3.43;1.00;;;;;;;;;;5047206;28;20315;-81
2022/12/27 11:09:23;;;;;;;2.37;1.30;;;;;;;;;;5048929;28;20281;-81
2022/12/27 11:11:48;;;;;;;3.73;2.10;;;;;;;;;;5044768;28;20292;-81
2022/12/27 11:14:18;;;;;;;4.83;1.37;;;;;;;;;;5044864;28;20285;-81
2022/12/27 11:16:43;;;;;;;6.40;1.53;;;;;;;;;;5043019;28;20182;-81
2022/12/27 11:19:19;;;;;;;1.20;1.10;;;;;;;;;;5041365;28;20259;-81
2022/12/27 11:21:45;;;;;;;5.07;1.40;;;;;;;;;;5044109;28;20238;-81
2022/12/27 11:24:12;;;;;;;2.30;1.30;;;;;;;;;;5067118;28;20182;-81
2022/12/27 11:26:48;;;;;;;3.07;1.33;;;;;;;;;;5049284;28;20340;-81
2022/12/27 11:29:16;;;;;;;4.03;1.40;;;;;;;;;;5049956;28;20631;-81
2022/12/27 11:31:46;;;;;;;3.73;1.23;;;;;;;;;;5050419;28;20209;-81
2022/12/27 11:34:12;;;;;;;4.27;2.47;;;;;;;;;;5046754;28;20189;-81
2022/12/27 11:36:39;;;;;;;3.50;1.83;;;;;;;;;;5038424;28;20211;-81
2022/12/27 11:39:06;;;;;;;2.67;1.37;;;;;;;;;;5031146;28;20198;-81
2022/12/27 11:41:46;;;;;;;2.23;1.30;;;;;;;;;;5026076;28;20272;-81
2022/12/27 11:44:11;;;;;;;2.40;1.40;;;;;;;;;;5010393;28;20254;-81
2022/12/27 11:46:51;;;;;;;3.20;1.67;;;;;;;;;;5015854;28;20323;-81
2022/12/27 11:49:21;;;;;;;3.73;1.53;;;;;;;;;;5009202;28;20286;-81
2022/12/27 11:52:05;;;;;;;2.00;1.10;;;;;;;;;;5015189;28;20236;-81
2022/12/27 11:54:51;;;;;;;4.03;1.50;;;;;;;;;;5005164;28;20185;-81
2022/12/27 11:57:22;;;;;;;4.23;1.40;;;;;;;;;;4981174;28;20200;-81
2022/12/27 12:00:06;;;;;;;3.83;1.87;;;;;;;;;;5009713;28;20191;-81
2022/12/27 12:02:37;;;;;;;2.40;1.70;;;;;;;;;;5009243;28;20183;-81
2022/12/27 12:05:18;;;;;;;5.63;1.87;;;;;;;;;;5009647;28;20242;-81
2022/12/27 12:08:01;;;;;;;4.90;3.27;;;;;;;;;;5007847;28;20208;-81
2022/12/27 12:10:32;;;;;;;2.37;1.67;;;;;;;;;;5027075;28;20216;-81
2022/12/27 12:13:16;;;;;;;5.83;1.77;;;;;;;;;;5013267;28;20210;-81
2022/12/27 12:15:48;;;;;;;6.40;2.27;;;;;;;;;;5032045;28;20184;-81
2022/12/27 12:18:31;;;;;;;2.67;1.67;;;;;;;;;;5017490;28;20208;-81
2022/12/27 12:21:07;;;;;;;5.03;2.83;;;;;;;;;;5018829;28;20248;-81
2022/12/27 12:23:48;;;;;;;2.07;1.67;;;;;;;;;;5006972;28;20184;-81
2022/12/27 12:26:19;;;;;;;6.47;2.67;;;;;;;;;;5006042;28;20182;-81
2022/12/27 12:29:03;;;;;;;6.07;3.67;;;;;;;;;;5004989;28;20174;-81
2022/12/27 12:31:48;;;;;;;3.07;1.60;;;;;;;;;;5005403;28;20200;-81
2022/12/27 12:34:25;;;;;;;2.33;1.40;;;;;;;;;;5008585;28;20462;-81
2022/12/27 12:36:55;;;;;;;1.50;1.10;;;;;;;;;;5013376;28;20233;-81
2022/12/27 12:39:33;;;;;;;7.03;1.30;;;;;;;;;;5048642;28;20204;-80
2022/12/27 12:42:01;;;;;;;3.50;3.20;;;;;;;;;;5049807;28;20222;-81
2022/12/27 12:44:46;;;;;;;3.77;1.53;;;;;;;;;;5048906;28;20191;-81
2022/12/27 12:47:38;;;;;;;3.03;1.40;;;;;;;;;;5045649;28;20222;-81
2022/12/27 12:50:17;;;;;;;2.33;1.10;;;;;;;;;;5047696;28;20188;-81
2022/12/27 12:53:00;;;;;;;3.93;1.10;;;;;;;;;;5038119;28;20208;-81
2022/12/27 12:55:44;;;;;;;4.50;1.30;;;;;;;;;;5048884;28;20200;-81
2022/12/27 12:58:18;;;;;;;2.33;1.10;;;;;;;;;;5045166;28;20369;-81
2022/12/27 13:00:46;;;;;;;3.40;1.50;;;;;;;;;;5041047;28;20201;-81
2022/12/27 13:03:15;;;;;;;1.57;1.20;;;;;;;;;;5047705;28;20241;-81
2022/12/27 13:05:49;;;;;;;4.60;1.33;;;;;;;;;;5036208;28;20185;-81
2022/12/27 13:08:32;;;;;;;2.20;1.13;;;;;;;;;;5045816;28;20681;-81
2022/12/27 13:11:17;;;;;;;1.90;1.27;;;;;;;;;;5039492;28;20188;-81
2022/12/27 13:13:45;;;;;;;7.17;3.50;;;;;;;;;;5043878;28;20181;-81
2022/12/27 13:16:29;;;;;;;3.07;1.10;;;;;;;;;;5049960;28;20181;-81
2022/12/27 13:19:05;;;;;;;1.03;0.80;;;;;;;;;;5044219;28;20207;-81
2022/12/27 13:21:30;;;;;;;1.67;1.00;;;;;;;;;;5047065;28;20168;-81
2022/12/27 13:24:06;;;;;;;4.07;1.30;;;;;;;;;;5043601;28;20176;-81
2022/12/27 13:26:38;;;;;;;1.67;1.13;;;;;;;;;;5043376;28;20204;-81
2022/12/27 13:29:19;;;;;;;2.13;1.20;;;;;;;;;;5038247;28;20189;-81
2022/12/27 13:31:56;;;;;;;1.30;1.00;;;;;;;;;;5046122;28;20197;-81
2022/12/27 13:34:36;;;;;;;3.93;1.50;;;;;;;;;;5034338;28;20192;-81
2022/12/27 13:37:04;;;;;;;4.97;1.70;;;;;;;;;;5039559;28;20232;-81
2022/12/27 13:39:32;;;;;;;5.30;1.50;;;;;;;;;;5011123;28;20195;-81
2022/12/27 13:42:16;;;;;;;3.00;1.37;;;;;;;;;;5008992;28;20185;-81
2022/12/27 13:44:42;;;;;;;3.40;1.30;;;;;;;;;;5019819;28;20191;-81
2022/12/27 13:47:11;;;;;;;5.17;2.67;;;;;;;;;;5019003;28;20204;-81
2022/12/27 13:49:42;;;;;;;2.77;1.60;;;;;;;;;;5029699;28;20181;-81
2022/12/27 13:52:07;;;;;;;5.60;1.40;;;;;;;;;;5015168;28;20205;-81
2022/12/27 13:54:43;;;;;;;15.77;7.53;;;;;;;;;;5014159;28;20193;-81
2022/12/27 13:57:29;;;;;;;6.13;3.70;;;;;;;;;;5015302;28;20683;-81
2022/12/27 14:00:13;;;;;;;9.73;5.80;;;;;;;;;;5012940;28;20197;-81
2022/12/27 14:02:44;;;;;;;1.63;1.10;;;;;;;;;;5017971;28;20250;-81
2022/12/27 14:05:19;;;;;;;10.47;3.90;;;;;;;;;;5015548;28;20193;-81
2022/12/27 14:07:44;;;;;;;3.40;1.40;;;;;;;;;;5008304;28;20246;-81
2022/12/27 14:10:10;;;;;;;3.78;1.52;;;;;;;;;;5008320;28;20182;-81
2022/12/27 14:12:35;;;;;;;2.83;1.97;;;;;;;;;;5015379;28;20209;-81
2022/12/27 14:15:02;;;;;;;7.00;4.45;;;;;;;;;;5014267;28;20172;-81
2022/12/27 14:17:33;;;;;;;7.33;6.40;;;;;;;;;;5018139;28;20409;-81
2022/12/27 14:20:17;;;;;;;22.53;16.07;;;;;;;;;;5015124;28;20186;-81
2022/12/27 14:22:43;;;;;;;4.40;2.83;;;;;;;;;;5010078;28;20176;-81
2022/12/27 14:25:27;;;;;;;11.13;10.00;;;;;;;;;;5014732;28;20185;-81
2022/12/27 14:28:11;;;;;;;3.90;3.50;;;;;;;;;;5006028;28;20177;-81
2022/12/27 14:30:54;;;;;;;5.30;3.37;;;;;;;;;;5013580;28;20184;-81
2022/12/27 14:33:26;;;;;;;3.03;1.70;;;;;;;;;;5029689;28;20184;-81
2022/12/27 14:36:00;;;;;;;4.93;2.13;;;;;;;;;;5007333;28;20181;-81
2022/12/27 14:38:47;;;;;;;1.80;1.47;;;;;;;;;;5031559;28;20280;-81
2022/12/27 14:41:15;;;;;;;2.43;1.40;;;;;;;;;;5015553;28;20275;-81
2022/12/27 14:43:57;;;;;;;6.33;2.57;;;;;;;;;;5013755;28;20198;-81
2022/12/27 14:46:42;;;;;;;6.67;2.40;;;;;;;;;;5027654;28;20206;-81
2022/12/27 14:49:26;;;;;;;2.67;1.30;;;;;;;;;;5028175;28;20188;-81
2022/12/27 14:52:17;;;;;;;3.00;2.60;;;;;;;;;;5018183;28;20238;-81
2022/12/27 14:54:54;;;;;;;4.37;1.77;;;;;;;;;;5008393;28;20189;-81
2022/12/27 14:57:32;;;;;;;4.50;1.97;;;;;;;;;;5014807;28;20179;-81
2022/12/27 15:00:00;;;;;;;4.73;1.30;;;;;;;;;;5016442;28;20204;-81
2022/12/27 15:02:31;;;;;;;6.77;1.40;;;;;;;;;;5009155;28;22284;-81
2022/12/27 15:05:09;;;;;;;1.93;1.10;;;;;;;;;;5022730;28;20215;-81
2022/12/27 15:07:44;;;;;;;2.00;1.83;;;;;;;;;;5007856;28;20179;-81
2022/12/27 15:10:28;;;;;;;3.03;1.37;;;;;;;;;;5024358;28;20180;-81
2022/12/27 15:13:12;;;;;;;2.07;1.40;;;;;;;;;;5013233;28;20202;-81
2022/12/27 15:15:56;;;;;;;3.80;2.20;;;;;;;;;;5031963;28;20171;-81
2022/12/27 15:18:21;;;;;;;5.87;3.33;;;;;;;;;;5014577;28;20200;-81
2022/12/27 15:20:58;;;;;;;4.55;2.45;;;;;;;;;;5019263;28;20175;-81
2022/12/27 15:23:23;;;;;;;3.63;2.00;;;;;;;;;;5026417;28;20191;-81
2022/12/27 15:26:12;;;;;;;11.45;4.82;;;;;;;;;;5033187;28;20180;-81
2022/12/27 15:28:46;;;;;;;2.93;1.93;;;;;;;;;;4983759;28;20198;-81
2022/12/27 15:31:23;;;;;;;3.47;1.97;;;;;;;;;;5031539;28;20259;-81
2022/12/27 15:34:07;;;;;;;4.00;1.60;;;;;;;;;;5006484;28;20180;-81
2022/12/27 15:36:42;;;;;;;2.67;1.40;;;;;;;;;;5015302;28;20203;-81
2022/12/27 15:39:27;;;;;;;6.10;2.27;;;;;;;;;;5011976;28;20190;-81
2022/12/27 15:42:01;;;;;;;6.70;2.90;;;;;;;;;;5006583;28;20183;-81
2022/12/27 15:44:26;;;;;;;7.60;4.23;;;;;;;;;;5010660;28;20181;-81
2022/12/27 15:47:18;;;;;;;21.20;9.87;;;;;;;;;;5011472;28;20187;-81
2022/12/27 15:50:09;;;;;;;16.43;10.17;;;;;;;;;;5016173;28;20272;-81
2022/12/27 15:52:38;;;;;;;13.03;7.87;;;;;;;;;;5023400;28;20225;-81
2022/12/27 15:55:06;;;;;;;9.60;5.77;;;;;;;;;;5012293;28;20186;-81
2022/12/27 15:57:31;;;;;;;6.90;5.10;;;;;;;;;;5008561;28;20179;-81
2022/12/27 16:00:15;;;;;;;6.60;2.40;;;;;;;;;;5017178;28;20537;-81
2022/12/27 16:02:43;;;;;;;3.47;1.50;;;;;;;;;;5018829;28;20176;-81
2022/12/27 16:05:10;;;;;;;3.00;2.33;;;;;;;;;;5006317;28;20263;-81
2022/12/27 16:07:45;;;;;;;3.93;2.00;;;;;;;;;;5014687;28;21540;-81
2022/12/27 16:10:29;;;;;;;2.30;1.70;;;;;;;;;;5016836;28;20171;-81
2022/12/27 16:13:14;;;;;;;2.13;1.93;;;;;;;;;;5017981;28;20204;-81
2022/12/27 16:15:43;;;;;;;2.73;2.47;;;;;;;;;;4990667;28;20184;-81
2022/12/27 16:18:18;;;;;;;5.80;2.30;;;;;;;;;;5005674;28;20195;-81
2022/12/27 16:21:04;;;;;;;2.47;1.80;;;;;;;;;;5006882;28;20269;-81
2022/12/27 16:23:48;;;;;;;4.83;2.80;;;;;;;;;;5002467;28;20243;-81
2022/12/27 16:26:20;;;;;;;2.40;2.20;;;;;;;;;;5011808;28;20174;-81
2022/12/27 16:28:51;;;;;;;3.77;2.63;;;;;;;;;;5023826;28;20175;-80
2022/12/27 16:31:21;;;;;;;5.30;2.70;;;;;;;;;;5005354;28;20560;-81
2022/12/27 16:33:47;;;;;;;5.83;3.83;;;;;;;;;;5011964;28;20183;-81
2022/12/27 16:36:35;;;;;;;5.43;2.50;;;;;;;;;;5000840;28;20206;-81
2022/12/27 16:39:10;;;;;;;4.53;2.70;;;;;;;;;;5001134;28;20193;-81
2022/12/27 16:41:53;;;;;;;3.40;2.40;;;;;;;;;;5008300;28;20270;-81
2022/12/27 16:44:25;;;;;;;6.13;3.10;;;;;;;;;;4997090;28;20216;-81
2022/12/27 16:47:00;;;;;;;6.03;4.07;;;;;;;;;;5005504;28;20241;-81
2022/12/27 16:49:41;;;;;;;5.17;4.00;;;;;;;;;;5024347;28;20183;-81